| time (UTC) | temp F | wind direction | speed MPH | gust MPH | rain 1hr in | rain 24hr in | rain mn in | humidity % | barometer mb |
| 20260502170506 | 63 | 97 | 3.0 | 6.0 | 0.00 | 0.00 | 0.00 | 30 | 1022.4 |
| 20260502164003 | 63 | 64 | 1.0 | 3.0 | 0.00 | 0.00 | 0.00 | 31 | 1022.5 |
| 20260502163503 | 63 | 53 | 1.0 | 8.0 | 0.00 | 0.00 | 0.00 | 35 | 1022.6 |
| 20260502163017 | 62 | 165 | 1.0 | 8.0 | 0.00 | 0.00 | 0.00 | 34 | 1022.7 |
| 20260502162506 | 62 | 153 | 1.0 | 2.0 | 0.00 | 0.00 | 0.00 | 35 | 1022.7 |
| 20260502162011 | 62 | 182 | 1.0 | 7.0 | 0.00 | 0.00 | 0.00 | 34 | 1022.6 |
| 20260502161517 | 61 | 64 | 1.0 | 7.0 | 0.00 | 0.00 | 0.00 | 36 | 1022.6 |
| 20260502161006 | 60 | 52 | 2.0 | 8.0 | 0.00 | 0.00 | 0.00 | 35 | 1022.6 |
| 20260502160507 | 60 | 150 | 4.0 | 9.0 | 0.00 | 0.00 | 0.00 | 33 | 1022.6 |
| 20260502152007 | 58 | 84 | 2.0 | 7.0 | 0.00 | 0.00 | 0.00 | 36 | 1022.9 |
| 20260502151522 | 58 | 71 | 3.0 | 8.0 | 0.00 | 0.00 | 0.00 | 35 | 1022.9 |
| 20260502151008 | 57 | 95 | 4.0 | 8.0 | 0.00 | 0.00 | 0.00 | 37 | 1022.9 |
| 20260502150509 | 56 | 104 | 2.0 | 6.0 | 0.00 | 0.00 | 0.00 | 40 | 1022.8 |
| 20260502130505 | 46 | 78 | 1.0 | 6.0 | 0.00 | 0.00 | 0.00 | 60 | 1022.4 |
| 20260502123512 | 42 | 60 | 2.0 | 6.0 | 0.00 | 0.00 | 0.00 | 68 | 1022.0 |
| 20260502123023 | 41 | 54 | 3.0 | 5.0 | 0.00 | 0.00 | 0.00 | 70 | 1022.0 |
| 20260502122510 | 41 | 40 | 2.0 | 6.0 | 0.00 | 0.00 | 0.00 | 71 | 1021.9 |
| 20260502122010 | 40 | 62 | 4.0 | 6.0 | 0.00 | 0.00 | 0.00 | 71 | 1021.8 |
| 20260502121527 | 40 | 30 | 3.0 | 5.0 | 0.00 | 0.00 | 0.00 | 72 | 1021.7 |
| 20260502121003 | 41 | 42 | 3.0 | 5.0 | 0.00 | 0.00 | 0.00 | 72 | 1021.7 |
| 20260502120503 | 41 | 34 | 3.0 | 6.0 | 0.00 | 0.00 | 0.00 | 72 | 1021.5 |
| 20260502115505 | 41 | 45 | 3.0 | 6.0 | 0.00 | 0.00 | 0.00 | 71 | 1021.5 |
| 20260502115008 | 41 | 49 | 4.0 | 6.0 | 0.00 | 0.00 | 0.00 | 71 | 1021.4 |
| 20260502114528 | 41 | 58 | 3.0 | 5.0 | 0.00 | 0.00 | 0.00 | 71 | 1021.4 |
| 20260502114007 | 41 | 42 | 3.0 | 5.0 | 0.00 | 0.00 | 0.00 | 71 | 1021.4 |
| 20260502113507 | 41 | 51 | 3.0 | 5.0 | 0.00 | 0.00 | 0.00 | 71 | 1021.4 |
| 20260502113025 | 41 | 51 | 2.0 | 5.0 | 0.00 | 0.00 | 0.00 | 71 | 1021.3 |
| 20260502112506 | 41 | 61 | 2.0 | 5.0 | 0.00 | 0.00 | 0.00 | 72 | 1021.2 |
| 20260502112008 | 41 | 84 | 3.0 | 5.0 | 0.00 | 0.00 | 0.00 | 72 | 1021.1 |
| 20260502111526 | 42 | 67 | 2.0 | 5.0 | 0.00 | 0.00 | 0.00 | 72 | 1021.2 |
| 20260502111003 | 42 | 58 | 3.0 | 6.0 | 0.00 | 0.00 | 0.00 | 72 | 1021.2 |
| 20260502110504 | 42 | 55 | 2.0 | 9.0 | 0.00 | 0.00 | 0.00 | 73 | 1021.1 |
| 20260502110018 | 42 | 42 | 4.0 | 9.0 | 0.00 | 0.00 | 0.00 | 73 | 1021.2 |
| 20260502105507 | 42 | 53 | 4.0 | 8.0 | 0.00 | 0.00 | 0.00 | 73 | 1021.1 |
| 20260502105006 | 42 | 53 | 3.0 | 8.0 | 0.00 | 0.00 | 0.00 | 74 | 1021.1 |
| 20260502104523 | 42 | 62 | 3.0 | 6.0 | 0.00 | 0.00 | 0.00 | 74 | 1021.1 |
| 20260502104009 | 42 | 49 | 3.0 | 5.0 | 0.00 | 0.00 | 0.00 | 74 | 1021.1 |
| 20260502103514 | 43 | 53 | 3.0 | 5.0 | 0.00 | 0.00 | 0.00 | 74 | 1021.1 |
| 20260502103023 | 43 | 62 | 2.0 | 5.0 | 0.00 | 0.00 | 0.00 | 73 | 1020.9 |
| 20260502102508 | 43 | 67 | 3.0 | 5.0 | 0.00 | 0.00 | 0.00 | 73 | 1020.9 |
| 20260502102007 | 43 | 44 | 3.0 | 6.0 | 0.00 | 0.00 | 0.00 | 73 | 1020.9 |
| 20260502101511 | 44 | 22 | 3.0 | 6.0 | 0.00 | 0.00 | 0.00 | 72 | 1020.9 |
| 20260502101010 | 44 | 57 | 3.0 | 6.0 | 0.00 | 0.00 | 0.00 | 71 | 1020.9 |
| 20260502100505 | 44 | 44 | 3.0 | 6.0 | 0.00 | 0.00 | 0.00 | 71 | 1020.8 |
| 20260502091512 | 44 | 81 | 3.0 | 8.0 | 0.00 | 0.00 | 0.00 | 72 | 1020.5 |
| 20260502091010 | 44 | 69 | 3.0 | 8.0 | 0.00 | 0.00 | 0.00 | 72 | 1020.5 |
| 20260502090507 | 45 | 63 | 3.0 | 7.0 | 0.00 | 0.00 | 0.00 | 72 | 1020.4 |
| 20260502071516 | 45 | 34 | 2.0 | 5.0 | 0.00 | 0.00 | 0.00 | 83 | 1020.5 |
| 20260502071007 | 46 | 40 | 2.0 | 5.0 | 0.00 | 0.00 | 0.00 | 83 | 1020.5 |
| 20260502070507 | 46 | 13 | 2.0 | 4.0 | 0.00 | 0.00 | 0.00 | 83 | 1020.6 |
| 20260502070024 | 46 | 329 | 0.0 | 3.0 | 0.00 | 0.00 | 0.00 | 82 | 1020.4 |
| 20260502065507 | 46 | 293 | 0.0 | 0.0 | 0.00 | 0.00 | 0.00 | 82 | 1020.3 |
| 20260502065011 | 46 | 293 | 0.0 | 0.0 | 0.00 | 0.00 | 0.00 | 82 | 1020.3 |
| 20260502064541 | 46 | 293 | 0.0 | 0.0 | 0.00 | 0.00 | 0.00 | 82 | 1020.2 |
| 20260502064011 | 46 | 293 | 0.0 | 0.0 | 0.00 | 0.00 | 0.00 | 82 | 1020.2 |
| 20260502063510 | 46 | 293 | 0.0 | 0.0 | 0.00 | 0.00 | 0.00 | 82 | 1020.1 |
| 20260502063028 | 46 | 293 | 0.0 | 0.0 | 0.00 | 0.00 | 0.00 | 81 | 1020.1 |
| 20260502062511 | 47 | 293 | 0.0 | 0.0 | 0.00 | 0.00 | 0.00 | 81 | 1020.0 |
| 20260502062009 | 47 | 293 | 0.0 | 0.0 | 0.00 | 0.00 | 0.00 | 81 | 1020.0 |
| 20260502061519 | 47 | 293 | 0.0 | 0.0 | 0.00 | 0.00 | 0.00 | 81 | 1019.8 |
| 20260502061009 | 47 | 293 | 0.0 | 0.0 | 0.00 | 0.00 | 0.00 | 81 | 1020.1 |
| 20260502060507 | 47 | 293 | 0.0 | 0.0 | 0.00 | 0.00 | 0.00 | 81 | 1020.1 |
| 20260502060035 | 47 | 293 | 0.0 | 0.0 | 0.00 | 0.00 | 0.00 | 80 | 1020.0 |
| 20260502055507 | 47 | 293 | 0.0 | 0.0 | 0.00 | 0.00 | 0.00 | 80 | 1019.9 |
| 20260502055007 | 47 | 293 | 0.0 | 0.0 | 0.00 | 0.00 | 0.00 | 79 | 1019.9 |
| 20260502054529 | 47 | 293 | 0.0 | 0.0 | 0.00 | 0.00 | 0.00 | 79 | 1019.9 |
| 20260502054009 | 47 | 293 | 0.0 | 0.0 | 0.00 | 0.00 | 0.00 | 78 | 1019.7 |
| 20260502053513 | 47 | 293 | 0.0 | 0.0 | 0.00 | 0.00 | 0.00 | 78 | 1019.8 |
| 20260502053029 | 48 | 293 | 0.0 | 0.0 | 0.00 | 0.00 | 0.00 | 77 | 1019.9 |
| 20260502052510 | 48 | 293 | 0.0 | 0.0 | 0.00 | 0.00 | 0.00 | 77 | 1019.9 |
| 20260502052007 | 48 | 293 | 0.0 | 0.0 | 0.00 | 0.00 | 0.00 | 77 | 1020.1 |
| 20260502051526 | 48 | 293 | 0.0 | 0.0 | 0.00 | 0.00 | 0.00 | 77 | 1020.1 |
| 20260502051011 | 48 | 293 | 0.0 | 0.0 | 0.00 | 0.00 | 0.00 | 77 | 1020.2 |
| 20260502050511 | 48 | 293 | 0.0 | 0.0 | 0.00 | 0.00 | 0.00 | 76 | 1020.0 |
| 20260502050026 | 48 | 130 | 0.0 | 0.0 | 0.00 | 0.00 | 0.00 | 76 | 1019.9 |
| 20260502045508 | 49 | 130 | 0.0 | 0.0 | 0.00 | 0.00 | 0.00 | 76 | 1019.9 |
| 20260502045009 | 49 | 130 | 0.0 | 0.0 | 0.00 | 0.00 | 0.00 | 76 | 1020.0 |
| 20260502044529 | 49 | 130 | 0.0 | 0.0 | 0.00 | 0.00 | 0.00 | 76 | 1020.0 |
| 20260502044008 | 49 | 130 | 0.0 | 0.0 | 0.00 | 0.00 | 0.00 | 76 | 1019.9 |
| 20260502043510 | 49 | 130 | 0.0 | 0.0 | 0.00 | 0.00 | 0.00 | 76 | 1020.0 |
| 20260502043011 | 49 | 130 | 0.0 | 0.0 | 0.00 | 0.00 | 0.00 | 76 | 1020.0 |
| 20260502042506 | 50 | 130 | 0.0 | 0.0 | 0.00 | 0.00 | 0.00 | 76 | 1019.9 |
| 20260502042004 | 50 | 130 | 0.0 | 0.0 | 0.00 | 0.00 | 0.00 | 75 | 1019.9 |
| 20260502041515 | 50 | 130 | 0.0 | 0.0 | 0.00 | 0.00 | 0.00 | 75 | 1019.8 |
| 20260502041003 | 50 | 130 | 0.0 | 0.0 | 0.00 | 0.00 | 0.00 | 75 | 1019.8 |
| 20260502040504 | 50 | 130 | 0.0 | 0.0 | 0.00 | 0.00 | 0.00 | 74 | 1019.7 |
| 20260502040008 | 51 | 130 | 0.0 | 0.0 | 0.00 | 0.00 | 0.00 | 74 | 1019.6 |
| 20260502035503 | 51 | 130 | 0.0 | 0.0 | 0.00 | 0.00 | 0.00 | 73 | 1019.4 |
| 20260502035006 | 51 | 130 | 0.0 | 0.0 | 0.00 | 0.00 | 0.00 | 73 | 1019.3 |
| 20260502034517 | 51 | 130 | 0.0 | 0.0 | 0.00 | 0.00 | 0.00 | 72 | 1019.2 |
| 20260502034008 | 51 | 130 | 0.0 | 0.0 | 0.00 | 0.00 | 0.00 | 72 | 1019.2 |
| 20260502033507 | 52 | 130 | 0.0 | 0.0 | 0.00 | 0.00 | 0.00 | 72 | 1019.3 |
| 20260502033025 | 52 | 124 | 0.0 | 0.0 | 0.00 | 0.00 | 0.00 | 71 | 1019.3 |
| 20260502032504 | 52 | 80 | 0.0 | 0.0 | 0.00 | 0.00 | 0.00 | 70 | 1019.3 |
| 20260502032004 | 52 | 81 | 0.0 | 0.0 | 0.00 | 0.00 | 0.00 | 70 | 1019.3 |
| 20260502031511 | 52 | 74 | 0.0 | 0.0 | 0.00 | 0.00 | 0.00 | 69 | 1019.1 |
| 20260502031003 | 53 | 87 | 0.0 | 0.0 | 0.00 | 0.00 | 0.00 | 69 | 1019.1 |
| 20260502030504 | 53 | 81 | 0.0 | 0.0 | 0.00 | 0.00 | 0.00 | 69 | 1018.9 |
| 20260502030008 | 53 | 85 | 0.0 | 5.0 | 0.00 | 0.00 | 0.00 | 68 | 1018.8 |
| 20260502025504 | 53 | 77 | 0.0 | 5.0 | 0.00 | 0.00 | 0.00 | 68 | 1018.8 |
| 20260502025006 | 53 | 80 | 0.0 | 2.0 | 0.00 | 0.00 | 0.00 | 67 | 1018.6 |
| 20260502024515 | 54 | 76 | 0.0 | 0.0 | 0.00 | 0.00 | 0.00 | 66 | 1018.6 |
| 20260502024005 | 54 | 76 | 0.0 | 0.0 | 0.00 | 0.00 | 0.00 | 66 | 1018.6 |
| 20260502023506 | 54 | 78 | 0.0 | 5.0 | 0.00 | 0.00 | 0.00 | 65 | 1018.6 |
| 20260502023014 | 54 | 91 | 0.0 | 5.0 | 0.00 | 0.00 | 0.00 | 65 | 1018.5 |
| 20260502022507 | 54 | 61 | 0.0 | 3.0 | 0.00 | 0.00 | 0.00 | 64 | 1018.4 |
| 20260502022008 | 55 | 70 | 0.0 | 4.0 | 0.00 | 0.00 | 0.00 | 64 | 1018.3 |
| 20260502021514 | 55 | 81 | 0.0 | 4.0 | 0.00 | 0.00 | 0.00 | 64 | 1018.3 |
| 20260502021004 | 55 | 104 | 1.0 | 4.0 | 0.00 | 0.00 | 0.00 | 63 | 1018.3 |
| 20260502020506 | 55 | 84 | 1.0 | 4.0 | 0.00 | 0.00 | 0.00 | 63 | 1018.2 |
| 20260502020015 | 56 | 80 | 1.0 | 5.0 | 0.00 | 0.00 | 0.00 | 63 | 1018.2 |
| 20260502015504 | 56 | 82 | 1.0 | 6.0 | 0.00 | 0.00 | 0.00 | 62 | 1018.3 |
| 20260502015007 | 56 | 72 | 2.0 | 6.0 | 0.00 | 0.00 | 0.00 | 62 | 1018.2 |
| 20260502014515 | 57 | 80 | 1.0 | 6.0 | 0.00 | 0.00 | 0.00 | 61 | 1018.2 |
| 20260502014007 | 57 | 76 | 1.0 | 9.0 | 0.00 | 0.00 | 0.00 | 60 | 1018.1 |
| 20260502013507 | 57 | 81 | 2.0 | 9.0 | 0.00 | 0.00 | 0.00 | 60 | 1018.0 |
| 20260502013015 | 57 | 78 | 2.0 | 9.0 | 0.00 | 0.00 | 0.00 | 59 | 1018.0 |
| 20260502012507 | 58 | 74 | 2.0 | 6.0 | 0.00 | 0.00 | 0.00 | 58 | 1018.0 |
| 20260502012009 | 58 | 69 | 3.0 | 9.0 | 0.00 | 0.00 | 0.00 | 57 | 1018.0 |
| 20260502011507 | 58 | 88 | 1.0 | 9.0 | 0.00 | 0.00 | 0.00 | 58 | 1018.0 |
| 20260502011003 | 58 | 122 | 2.0 | 9.0 | 0.00 | 0.00 | 0.00 | 57 | 1018.0 |
| 20260502010504 | 58 | 96 | 2.0 | 4.0 | 0.00 | 0.00 | 0.00 | 57 | 1017.9 |
| 20260502010024 | 58 | 88 | 2.0 | 4.0 | 0.00 | 0.00 | 0.00 | 57 | 1017.9 |
| 20260502005508 | 58 | 74 | 1.0 | 4.0 | 0.00 | 0.00 | 0.00 | 57 | 1017.8 |
| 20260502005007 | 58 | 134 | 1.0 | 4.0 | 0.00 | 0.00 | 0.00 | 58 | 1017.7 |
| 20260502004526 | 58 | 84 | 1.0 | 4.0 | 0.00 | 0.00 | 0.00 | 57 | 1017.9 |
| 20260502004007 | 58 | 132 | 1.0 | 4.0 | 0.00 | 0.00 | 0.00 | 57 | 1018.0 |
| 20260502003507 | 58 | 80 | 1.0 | 4.0 | 0.00 | 0.00 | 0.00 | 57 | 1018.0 |
| 20260502003016 | 58 | 132 | 2.0 | 7.0 | 0.00 | 0.00 | 0.00 | 58 | 1018.0 |
| 20260502002506 | 59 | 127 | 1.0 | 7.0 | 0.00 | 0.00 | 0.00 | 58 | 1018.0 |
| 20260502001507 | 59 | 123 | 3.0 | 7.0 | 0.00 | 0.00 | 0.00 | 58 | 1017.8 |
| 20260502001007 | 59 | 120 | 3.0 | 6.0 | 0.00 | 0.00 | 0.00 | 57 | 1017.7 |
| 20260502000503 | 59 | 91 | 1.0 | 6.0 | 0.00 | 0.00 | 0.00 | 57 | 1017.5 |
| 20260502000019 | 59 | 122 | 2.0 | 8.0 | 0.00 | 0.00 | 0.00 | 57 | 1017.6 |
| 20260501235508 | 59 | 112 | 0.0 | 8.0 | 0.00 | 0.00 | 0.00 | 58 | 1017.6 |
| 20260501235007 | 59 | 98 | 2.0 | 10.0 | 0.00 | 0.00 | 0.00 | 58 | 1017.6 |
| 20260501234520 | 60 | 126 | 2.0 | 10.0 | 0.00 | 0.00 | 0.00 | 57 | 1017.5 |
| 20260501234013 | 60 | 96 | 3.0 | 7.0 | 0.00 | 0.00 | 0.00 | 55 | 1017.4 |
| 20260501233507 | 60 | 80 | 3.0 | 7.0 | 0.00 | 0.00 | 0.00 | 56 | 1017.4 |
| 20260501233019 | 61 | 63 | 2.0 | 7.0 | 0.00 | 0.00 | 0.00 | 54 | 1017.3 |
| 20260501232509 | 60 | 85 | 2.0 | 7.0 | 0.00 | 0.00 | 0.00 | 53 | 1017.2 |
| 20260501232008 | 60 | 74 | 1.0 | 7.0 | 0.00 | 0.00 | 0.00 | 55 | 1017.3 |
| 20260501231511 | 60 | 81 | 3.0 | 7.0 | 0.00 | 0.00 | 0.00 | 55 | 1017.3 |
| 20260501231004 | 60 | 74 | 2.0 | 3.0 | 0.00 | 0.00 | 0.00 | 55 | 1017.2 |
| 20260501230509 | 60 | 81 | 1.0 | 4.0 | 0.00 | 0.00 | 0.00 | 55 | 1017.1 |
| 20260501230023 | 60 | 61 | 1.0 | 8.0 | 0.00 | 0.00 | 0.00 | 58 | 1017.1 |
| 20260501225510 | 60 | 250 | 2.0 | 8.0 | 0.00 | 0.00 | 0.00 | 59 | 1017.3 |
| 20260501225013 | 60 | 314 | 3.0 | 5.0 | 0.00 | 0.00 | 0.00 | 57 | 1017.6 |
| 20260501224521 | 60 | 329 | 3.0 | 6.0 | 0.00 | 0.00 | 0.00 | 57 | 1017.6 |
| 20260501224011 | 60 | 352 | 2.0 | 7.0 | 0.00 | 0.00 | 0.00 | 57 | 1017.3 |
| 20260501223506 | 60 | 58 | 4.0 | 8.0 | 0.00 | 0.00 | 0.00 | 55 | 1017.0 |
| 20260501223018 | 60 | 105 | 3.0 | 9.0 | 0.00 | 0.00 | 0.00 | 56 | 1016.8 |
| 20260501222506 | 61 | 78 | 4.0 | 13.0 | 0.00 | 0.00 | 0.00 | 56 | 1016.7 |
| 20260501222006 | 61 | 106 | 6.0 | 13.0 | 0.00 | 0.00 | 0.00 | 57 | 1016.6 |
| 20260501221511 | 61 | 79 | 9.0 | 13.0 | 0.00 | 0.00 | 0.00 | 55 | 1016.7 |
| 20260501221006 | 61 | 45 | 2.0 | 9.0 | 0.00 | 0.00 | 0.00 | 61 | 1016.6 |
| 20260501220509 | 60 | 86 | 5.0 | 9.0 | 0.00 | 0.00 | 0.00 | 57 | 1016.6 |
| 20260501220034 | 59 | 40 | 5.0 | 11.0 | 0.00 | 0.00 | 0.00 | 58 | 1016.6 |
| 20260501215507 | 59 | 68 | 4.0 | 11.0 | 0.00 | 0.00 | 0.00 | 60 | 1016.7 |
| 20260501215007 | 59 | 49 | 5.0 | 14.0 | 0.00 | 0.00 | 0.00 | 61 | 1016.8 |
| 20260501214503 | 58 | 95 | 8.0 | 14.0 | 0.00 | 0.00 | 0.00 | 61 | 1016.9 |
| 20260501214004 | 59 | 36 | 7.0 | 13.0 | 0.00 | 0.00 | 0.00 | 63 | 1017.0 |
| 20260501213503 | 59 | 67 | 8.0 | 16.0 | 0.00 | 0.00 | 0.00 | 62 | 1017.2 |
| 20260501213011 | 60 | 46 | 10.0 | 16.0 | 0.00 | 0.00 | 0.00 | 57 | 1017.3 |
| 20260501212506 | 61 | 53 | 8.0 | 16.0 | 0.00 | 0.00 | 0.00 | 51 | 1017.5 |
| 20260501212007 | 62 | 352 | 8.0 | 16.0 | 0.00 | 0.00 | 0.00 | 49 | 1017.5 |
| 20260501211516 | 64 | 44 | 9.0 | 18.0 | 0.00 | 0.00 | 0.00 | 45 | 1017.3 |
| 20260501211008 | 66 | 26 | 10.0 | 18.0 | 0.00 | 0.00 | 0.00 | 29 | 1017.2 |
| 20260501210509 | 67 | 270 | 7.0 | 12.0 | 0.00 | 0.00 | 0.00 | 29 | 1017.0 |
| 20260501210022 | 68 | 301 | 7.0 | 16.0 | 0.00 | 0.00 | 0.00 | 28 | 1016.9 |
| 20260501205510 | 69 | 284 | 10.0 | 16.0 | 0.00 | 0.00 | 0.00 | 29 | 1016.9 |
| 20260501205004 | 69 | 259 | 3.0 | 12.0 | 0.00 | 0.00 | 0.00 | 28 | 1016.8 |
| 20260501204508 | 69 | 270 | 4.0 | 12.0 | 0.00 | 0.00 | 0.00 | 29 | 1017.0 |
| 20260501204006 | 70 | 285 | 6.0 | 11.0 | 0.00 | 0.00 | 0.00 | 28 | 1017.1 |
| 20260501203508 | 70 | 294 | 3.0 | 13.0 | 0.00 | 0.00 | 0.00 | 28 | 1017.1 |
| 20260501203013 | 70 | 271 | 6.0 | 13.0 | 0.00 | 0.00 | 0.00 | 28 | 1017.2 |
| 20260501202506 | 70 | 284 | 7.0 | 11.0 | 0.00 | 0.00 | 0.00 | 29 | 1017.1 |
| 20260501202011 | 70 | 299 | 6.0 | 12.0 | 0.00 | 0.00 | 0.00 | 30 | 1017.2 |
| 20260501201522 | 69 | 298 | 5.0 | 14.0 | 0.00 | 0.00 | 0.00 | 29 | 1017.1 |
| 20260501201009 | 69 | 319 | 7.0 | 15.0 | 0.00 | 0.00 | 0.00 | 30 | 1017.1 |
| 20260501200506 | 68 | 272 | 8.0 | 15.0 | 0.00 | 0.00 | 0.00 | 30 | 1017.3 |
| 20260501200024 | 68 | 328 | 5.0 | 12.0 | 0.00 | 0.00 | 0.00 | 29 | 1017.4 |
| 20260501195513 | 69 | 249 | 5.0 | 12.0 | 0.00 | 0.00 | 0.00 | 29 | 1017.4 |
| 20260501195004 | 70 | 256 | 4.0 | 11.0 | 0.00 | 0.00 | 0.00 | 30 | 1017.5 |
| 20260501194508 | 70 | 238 | 2.0 | 12.0 | 0.00 | 0.00 | 0.00 | 31 | 1017.4 |
| 20260501194006 | 70 | 275 | 3.0 | 13.0 | 0.00 | 0.00 | 0.00 | 29 | 1017.6 |
| 20260501193509 | 69 | 277 | 8.0 | 13.0 | 0.00 | 0.00 | 0.00 | 32 | 1017.6 |
| 20260501193017 | 69 | 211 | 3.0 | 11.0 | 0.00 | 0.00 | 0.00 | 28 | 1017.6 |
| 20260501192511 | 69 | 247 | 4.0 | 16.0 | 0.00 | 0.00 | 0.00 | 32 | 1017.7 |
| 20260501192006 | 68 | 270 | 8.0 | 16.0 | 0.00 | 0.00 | 0.00 | 30 | 1017.9 |
| 20260501191533 | 69 | 272 | 5.0 | 13.0 | 0.00 | 0.01 | 0.00 | 27 | 1017.9 |
| 20260501191007 | 69 | 238 | 3.0 | 14.0 | 0.00 | 0.01 | 0.00 | 32 | 1017.9 |
| 20260501190507 | 68 | 313 | 1.0 | 14.0 | 0.00 | 0.02 | 0.00 | 33 | 1018.0 |
| 20260501190024 | 68 | 258 | 5.0 | 11.0 | 0.00 | 0.02 | 0.00 | 35 | 1018.0 |
| 20260501185503 | 68 | 293 | 5.0 | 13.0 | 0.00 | 0.02 | 0.00 | 33 | 1018.1 |
| 20260501185008 | 69 | 310 | 5.0 | 14.0 | 0.00 | 0.02 | 0.00 | 32 | 1018.1 |
| 20260501184528 | 69 | 287 | 7.0 | 14.0 | 0.00 | 0.02 | 0.00 | 33 | 1018.2 |
| 20260501184004 | 68 | 284 | 3.0 | 14.0 | 0.00 | 0.02 | 0.00 | 36 | 1018.2 |
| 20260501183506 | 67 | 225 | 2.0 | 9.0 | 0.00 | 0.02 | 0.00 | 35 | 1018.2 |
| 20260501183021 | 66 | 292 | 3.0 | 11.0 | 0.00 | 0.02 | 0.00 | 35 | 1018.3 |
| 20260501182507 | 66 | 308 | 3.0 | 12.0 | 0.00 | 0.02 | 0.00 | 38 | 1018.4 |
| 20260501182016 | 65 | 301 | 7.0 | 12.0 | 0.00 | 0.02 | 0.00 | 38 | 1018.6 |
| 20260501181525 | 66 | 295 | 5.0 | 10.0 | 0.00 | 0.02 | 0.00 | 37 | 1018.6 |
| 20260501181009 | 66 | 299 | 6.0 | 10.0 | 0.00 | 0.02 | 0.00 | 38 | 1018.7 |
| 20260501180514 | 66 | 299 | 2.0 | 13.0 | 0.00 | 0.02 | 0.00 | 38 | 1018.8 |
| 20260501180009 | 67 | 290 | 7.0 | 13.0 | 0.00 | 0.02 | 0.00 | 38 | 1018.8 |
| 20260501175506 | 67 | 173 | 1.0 | 10.0 | 0.00 | 0.02 | 0.00 | 36 | 1018.7 |
| 20260501175008 | 67 | 283 | 4.0 | 12.0 | 0.00 | 0.02 | 0.00 | 37 | 1018.8 |
| 20260501174515 | 67 | 248 | 2.0 | 12.0 | 0.00 | 0.02 | 0.00 | 38 | 1019.0 |